sensor_id;sensor_type;location;lat;lon;timestamp;P1;durP1;ratioP1;P2;durP2;ratioP2
6185;SDS011;3126;52.738;8.316;2023-10-13T00:04:05;48.92;;;22.23;;
6185;SDS011;3126;52.738;8.316;2023-10-13T00:09:06;39.50;;;21.15;;
6185;SDS011;3126;52.738;8.316;2023-10-13T00:14:14;41.92;;;21.13;;
6185;SDS011;3126;52.738;8.316;2023-10-13T00:19:18;35.65;;;19.75;;
6185;SDS011;3126;52.738;8.316;2023-10-13T00:24:19;44.35;;;21.08;;
6185;SDS011;3126;52.738;8.316;2023-10-13T00:29:23;45.60;;;24.17;;
6185;SDS011;3126;52.738;8.316;2023-10-13T00:34:37;53.03;;;21.92;;
6185;SDS011;3126;52.738;8.316;2023-10-13T00:39:38;44.17;;;24.45;;
6185;SDS011;3126;52.738;8.316;2023-10-13T00:44:45;51.97;;;25.88;;
6185;SDS011;3126;52.738;8.316;2023-10-13T00:49:49;46.22;;;24.90;;
6185;SDS011;3126;52.738;8.316;2023-10-13T00:54:51;48.88;;;25.35;;
6185;SDS011;3126;52.738;8.316;2023-10-13T00:59:54;49.97;;;25.90;;
6185;SDS011;3126;52.738;8.316;2023-10-13T01:09:57;48.72;;;23.83;;
6185;SDS011;3126;52.738;8.316;2023-10-13T01:14:58;50.13;;;24.60;;
6185;SDS011;3126;52.738;8.316;2023-10-13T01:30:19;43.88;;;22.55;;
6185;SDS011;3126;52.738;8.316;2023-10-13T01:35:24;48.83;;;23.30;;
6185;SDS011;3126;52.738;8.316;2023-10-13T01:40:26;41.28;;;23.45;;
6185;SDS011;3126;52.738;8.316;2023-10-13T01:45:29;41.53;;;23.67;;
6185;SDS011;3126;52.738;8.316;2023-10-13T01:50:30;44.65;;;24.73;;
6185;SDS011;3126;52.738;8.316;2023-10-13T01:55:31;43.45;;;26.33;;
6185;SDS011;3126;52.738;8.316;2023-10-13T02:00:44;37.33;;;22.73;;
6185;SDS011;3126;52.738;8.316;2023-10-13T02:05:46;45.80;;;23.92;;
6185;SDS011;3126;52.738;8.316;2023-10-13T02:10:47;39.53;;;22.85;;
6185;SDS011;3126;52.738;8.316;2023-10-13T02:15:49;43.47;;;22.23;;
6185;SDS011;3126;52.738;8.316;2023-10-13T02:20:53;45.80;;;24.27;;
6185;SDS011;3126;52.738;8.316;2023-10-13T02:25:55;35.85;;;20.90;;
6185;SDS011;3126;52.738;8.316;2023-10-13T02:31:12;33.10;;;19.42;;
6185;SDS011;3126;52.738;8.316;2023-10-13T02:36:13;30.88;;;20.15;;
6185;SDS011;3126;52.738;8.316;2023-10-13T02:41:22;36.22;;;21.23;;
6185;SDS011;3126;52.738;8.316;2023-10-13T02:46:26;35.85;;;20.90;;
6185;SDS011;3126;52.738;8.316;2023-10-13T02:51:30;34.92;;;20.05;;
6185;SDS011;3126;52.738;8.316;2023-10-13T02:56:35;31.40;;;19.17;;
6185;SDS011;3126;52.738;8.316;2023-10-13T03:01:36;37.35;;;21.63;;
6185;SDS011;3126;52.738;8.316;2023-10-13T03:06:37;38.13;;;20.05;;
6185;SDS011;3126;52.738;8.316;2023-10-13T03:11:40;34.42;;;21.15;;
6185;SDS011;3126;52.738;8.316;2023-10-13T03:16:48;36.45;;;21.10;;
6185;SDS011;3126;52.738;8.316;2023-10-13T03:21:49;41.50;;;20.55;;
6185;SDS011;3126;52.738;8.316;2023-10-13T03:26:57;35.20;;;21.83;;
6185;SDS011;3126;52.738;8.316;2023-10-13T03:31:59;34.78;;;21.33;;
6185;SDS011;3126;52.738;8.316;2023-10-13T03:37:07;39.85;;;20.48;;
6185;SDS011;3126;52.738;8.316;2023-10-13T03:42:18;35.88;;;21.85;;
6185;SDS011;3126;52.738;8.316;2023-10-13T03:47:18;33.35;;;19.05;;
6185;SDS011;3126;52.738;8.316;2023-10-13T03:52:26;31.08;;;18.48;;
6185;SDS011;3126;52.738;8.316;2023-10-13T03:57:34;34.97;;;19.88;;
6185;SDS011;3126;52.738;8.316;2023-10-13T04:02:38;31.45;;;20.55;;
6185;SDS011;3126;52.738;8.316;2023-10-13T04:07:45;31.67;;;18.27;;
6185;SDS011;3126;52.738;8.316;2023-10-13T04:13:05;28.02;;;19.00;;
6185;SDS011;3126;52.738;8.316;2023-10-13T04:18:24;28.77;;;19.15;;
6185;SDS011;3126;52.738;8.316;2023-10-13T04:23:47;28.88;;;17.35;;
6185;SDS011;3126;52.738;8.316;2023-10-13T04:29:06;26.60;;;17.33;;
6185;SDS011;3126;52.738;8.316;2023-10-13T04:34:27;28.63;;;17.50;;
6185;SDS011;3126;52.738;8.316;2023-10-13T04:39:37;27.25;;;16.40;;
6185;SDS011;3126;52.738;8.316;2023-10-13T04:44:39;33.17;;;18.30;;
6185;SDS011;3126;52.738;8.316;2023-10-13T04:49:40;31.63;;;19.55;;
6185;SDS011;3126;52.738;8.316;2023-10-13T04:54:47;27.25;;;17.45;;
6185;SDS011;3126;52.738;8.316;2023-10-13T04:59:48;27.58;;;16.90;;
6185;SDS011;3126;52.738;8.316;2023-10-13T05:10:18;25.45;;;15.20;;
6185;SDS011;3126;52.738;8.316;2023-10-13T05:15:46;30.25;;;16.88;;
6185;SDS011;3126;52.738;8.316;2023-10-13T05:26:27;23.52;;;15.40;;
6185;SDS011;3126;52.738;8.316;2023-10-13T05:32:04;22.23;;;15.32;;
6185;SDS011;3126;52.738;8.316;2023-10-13T05:37:24;27.30;;;16.33;;
6185;SDS011;3126;52.738;8.316;2023-10-13T05:42:43;21.98;;;14.68;;
6185;SDS011;3126;52.738;8.316;2023-10-13T05:48:03;27.70;;;15.52;;
6185;SDS011;3126;52.738;8.316;2023-10-13T05:58:38;24.63;;;15.07;;
6185;SDS011;3126;52.738;8.316;2023-10-13T06:03:58;27.52;;;16.98;;
6185;SDS011;3126;52.738;8.316;2023-10-13T06:09:17;28.52;;;18.20;;
6185;SDS011;3126;52.738;8.316;2023-10-13T06:14:37;29.20;;;19.90;;
6185;SDS011;3126;52.738;8.316;2023-10-13T06:19:57;30.95;;;19.63;;
6185;SDS011;3126;52.738;8.316;2023-10-13T06:25:16;30.33;;;19.23;;
6185;SDS011;3126;52.738;8.316;2023-10-13T06:30:36;36.80;;;21.15;;
6185;SDS011;3126;52.738;8.316;2023-10-13T06:35:38;32.75;;;21.35;;
6185;SDS011;3126;52.738;8.316;2023-10-13T06:45:43;35.75;;;23.00;;
6185;SDS011;3126;52.738;8.316;2023-10-13T06:50:50;32.15;;;21.00;;
6185;SDS011;3126;52.738;8.316;2023-10-13T06:55:52;35.15;;;23.00;;
6185;SDS011;3126;52.738;8.316;2023-10-13T07:00:58;28.52;;;19.60;;
6185;SDS011;3126;52.738;8.316;2023-10-13T07:05:59;31.58;;;20.80;;
6185;SDS011;3126;52.738;8.316;2023-10-13T07:11:00;28.52;;;19.73;;
6185;SDS011;3126;52.738;8.316;2023-10-13T07:16:02;32.05;;;18.92;;
6185;SDS011;3126;52.738;8.316;2023-10-13T07:21:12;23.63;;;17.65;;
6185;SDS011;3126;52.738;8.316;2023-10-13T07:26:13;29.10;;;17.23;;
6185;SDS011;3126;52.738;8.316;2023-10-13T07:31:15;20.35;;;15.25;;
6185;SDS011;3126;52.738;8.316;2023-10-13T07:36:16;21.77;;;13.95;;
6185;SDS011;3126;52.738;8.316;2023-10-13T07:41:23;15.40;;;13.43;;
6185;SDS011;3126;52.738;8.316;2023-10-13T07:46:30;19.10;;;13.35;;
6185;SDS011;3126;52.738;8.316;2023-10-13T07:51:35;14.60;;;11.98;;
6185;SDS011;3126;52.738;8.316;2023-10-13T07:56:45;17.55;;;11.63;;
6185;SDS011;3126;52.738;8.316;2023-10-13T08:01:46;17.17;;;11.18;;
6185;SDS011;3126;52.738;8.316;2023-10-13T08:06:47;17.65;;;12.23;;
6185;SDS011;3126;52.738;8.316;2023-10-13T08:11:48;13.95;;;11.27;;
6185;SDS011;3126;52.738;8.316;2023-10-13T08:16:54;16.13;;;11.75;;
6185;SDS011;3126;52.738;8.316;2023-10-13T08:21:59;11.88;;;9.70;;
6185;SDS011;3126;52.738;8.316;2023-10-13T08:27:23;15.95;;;9.73;;
6185;SDS011;3126;52.738;8.316;2023-10-13T08:32:42;12.68;;;9.00;;
6185;SDS011;3126;52.738;8.316;2023-10-13T08:37:54;16.08;;;9.80;;
6185;SDS011;3126;52.738;8.316;2023-10-13T08:42:55;11.80;;;8.25;;
6185;SDS011;3126;52.738;8.316;2023-10-13T08:48:16;13.15;;;8.70;;
6185;SDS011;3126;52.738;8.316;2023-10-13T08:53:26;13.10;;;8.35;;
6185;SDS011;3126;52.738;8.316;2023-10-13T08:58:30;12.02;;;8.52;;
6185;SDS011;3126;52.738;8.316;2023-10-13T09:03:50;14.38;;;8.82;;
6185;SDS011;3126;52.738;8.316;2023-10-13T09:08:54;11.48;;;8.18;;
6185;SDS011;3126;52.738;8.316;2023-10-13T09:14:12;9.25;;;7.47;;
6185;SDS011;3126;52.738;8.316;2023-10-13T09:19:32;10.65;;;7.95;;
6185;SDS011;3126;52.738;8.316;2023-10-13T09:24:44;9.38;;;7.63;;
6185;SDS011;3126;52.738;8.316;2023-10-13T09:29:54;12.48;;;7.95;;
6185;SDS011;3126;52.738;8.316;2023-10-13T09:34:59;11.13;;;8.43;;
6185;SDS011;3126;52.738;8.316;2023-10-13T09:40:00;11.00;;;8.88;;
6185;SDS011;3126;52.738;8.316;2023-10-13T09:45:06;14.23;;;9.93;;
6185;SDS011;3126;52.738;8.316;2023-10-13T09:50:12;13.13;;;9.27;;
6185;SDS011;3126;52.738;8.316;2023-10-13T09:55:26;11.50;;;10.23;;
6185;SDS011;3126;52.738;8.316;2023-10-13T10:00:29;13.68;;;8.80;;
6185;SDS011;3126;52.738;8.316;2023-10-13T10:05:42;13.30;;;8.82;;
6185;SDS011;3126;52.738;8.316;2023-10-13T10:10:55;12.88;;;7.32;;
6185;SDS011;3126;52.738;8.316;2023-10-13T10:15:57;9.88;;;7.07;;
6185;SDS011;3126;52.738;8.316;2023-10-13T10:21:04;14.57;;;6.63;;
6185;SDS011;3126;52.738;8.316;2023-10-13T10:26:09;12.38;;;6.10;;
6185;SDS011;3126;52.738;8.316;2023-10-13T10:31:15;10.32;;;5.35;;
6185;SDS011;3126;52.738;8.316;2023-10-13T10:36:29;12.85;;;6.05;;
6185;SDS011;3126;52.738;8.316;2023-10-13T10:41:30;12.25;;;5.30;;
6185;SDS011;3126;52.738;8.316;2023-10-13T10:46:43;12.68;;;5.60;;
6185;SDS011;3126;52.738;8.316;2023-10-13T10:51:58;10.80;;;5.53;;
6185;SDS011;3126;52.738;8.316;2023-10-13T10:57:09;11.75;;;5.60;;
6185;SDS011;3126;52.738;8.316;2023-10-13T11:02:17;9.52;;;5.20;;
6185;SDS011;3126;52.738;8.316;2023-10-13T11:07:27;11.90;;;5.30;;
6185;SDS011;3126;52.738;8.316;2023-10-13T11:17:34;9.20;;;4.57;;
6185;SDS011;3126;52.738;8.316;2023-10-13T11:23:10;13.32;;;5.22;;
6185;SDS011;3126;52.738;8.316;2023-10-13T11:33:27;9.80;;;5.20;;
6185;SDS011;3126;52.738;8.316;2023-10-13T11:38:29;12.57;;;5.78;;
6185;SDS011;3126;52.738;8.316;2023-10-13T11:43:50;10.52;;;5.78;;
6185;SDS011;3126;52.738;8.316;2023-10-13T11:48:51;16.00;;;5.40;;
6185;SDS011;3126;52.738;8.316;2023-10-13T11:53:55;9.43;;;5.18;;
6185;SDS011;3126;52.738;8.316;2023-10-13T11:58:56;14.25;;;5.95;;
6185;SDS011;3126;52.738;8.316;2023-10-13T12:04:01;9.65;;;5.25;;
6185;SDS011;3126;52.738;8.316;2023-10-13T12:09:21;12.70;;;5.60;;
6185;SDS011;3126;52.738;8.316;2023-10-13T12:14:22;15.13;;;5.68;;
6185;SDS011;3126;52.738;8.316;2023-10-13T12:19:30;11.65;;;5.10;;
6185;SDS011;3126;52.738;8.316;2023-10-13T12:24:31;14.48;;;5.95;;
6185;SDS011;3126;52.738;8.316;2023-10-13T12:29:35;9.25;;;5.03;;
6185;SDS011;3126;52.738;8.316;2023-10-13T12:34:36;11.65;;;5.22;;
6185;SDS011;3126;52.738;8.316;2023-10-13T12:39:56;10.57;;;4.70;;
6185;SDS011;3126;52.738;8.316;2023-10-13T12:45:16;13.40;;;5.80;;
6185;SDS011;3126;52.738;8.316;2023-10-13T12:50:35;11.85;;;5.63;;
6185;SDS011;3126;52.738;8.316;2023-10-13T12:55:44;10.18;;;5.25;;
6185;SDS011;3126;52.738;8.316;2023-10-13T13:00:45;13.02;;;6.15;;
6185;SDS011;3126;52.738;8.316;2023-10-13T13:05:48;12.55;;;5.70;;
6185;SDS011;3126;52.738;8.316;2023-10-13T13:10:55;12.23;;;5.22;;
6185;SDS011;3126;52.738;8.316;2023-10-13T13:15:56;16.77;;;5.72;;
6185;SDS011;3126;52.738;8.316;2023-10-13T13:20:57;8.07;;;5.10;;
6185;SDS011;3126;52.738;8.316;2023-10-13T13:26:00;10.55;;;5.40;;
6185;SDS011;3126;52.738;8.316;2023-10-13T13:31:01;8.95;;;5.68;;
6185;SDS011;3126;52.738;8.316;2023-10-13T13:36:05;13.43;;;6.22;;
6185;SDS011;3126;52.738;8.316;2023-10-13T13:41:12;11.10;;;5.03;;
6185;SDS011;3126;52.738;8.316;2023-10-13T13:46:16;12.70;;;5.93;;
6185;SDS011;3126;52.738;8.316;2023-10-13T13:51:18;16.02;;;6.20;;
6185;SDS011;3126;52.738;8.316;2023-10-13T13:56:27;16.10;;;6.55;;
6185;SDS011;3126;52.738;8.316;2023-10-13T14:01:30;14.00;;;5.70;;
6185;SDS011;3126;52.738;8.316;2023-10-13T14:06:34;15.20;;;6.30;;
6185;SDS011;3126;52.738;8.316;2023-10-13T14:11:35;12.60;;;6.05;;
6185;SDS011;3126;52.738;8.316;2023-10-13T14:16:39;14.07;;;5.80;;
6185;SDS011;3126;52.738;8.316;2023-10-13T14:21:49;15.15;;;6.53;;
6185;SDS011;3126;52.738;8.316;2023-10-13T14:26:57;12.98;;;6.45;;
6185;SDS011;3126;52.738;8.316;2023-10-13T14:32:18;12.95;;;6.03;;
6185;SDS011;3126;52.738;8.316;2023-10-13T14:37:20;14.85;;;6.28;;
6185;SDS011;3126;52.738;8.316;2023-10-13T14:42:29;17.27;;;6.30;;
6185;SDS011;3126;52.738;8.316;2023-10-13T14:47:35;12.02;;;5.50;;
6185;SDS011;3126;52.738;8.316;2023-10-13T14:52:39;14.77;;;6.07;;
6185;SDS011;3126;52.738;8.316;2023-10-13T14:57:40;13.60;;;6.15;;
6185;SDS011;3126;52.738;8.316;2023-10-13T15:02:41;14.88;;;6.20;;
6185;SDS011;3126;52.738;8.316;2023-10-13T15:07:43;14.52;;;5.88;;
6185;SDS011;3126;52.738;8.316;2023-10-13T15:12:45;16.38;;;6.43;;
6185;SDS011;3126;52.738;8.316;2023-10-13T15:17:46;12.57;;;6.63;;
6185;SDS011;3126;52.738;8.316;2023-10-13T15:22:47;16.20;;;6.70;;
6185;SDS011;3126;52.738;8.316;2023-10-13T15:27:48;15.60;;;6.10;;
6185;SDS011;3126;52.738;8.316;2023-10-13T15:32:56;15.88;;;6.00;;
6185;SDS011;3126;52.738;8.316;2023-10-13T15:37:57;11.35;;;5.57;;
6185;SDS011;3126;52.738;8.316;2023-10-13T15:42:58;13.52;;;6.45;;
6185;SDS011;3126;52.738;8.316;2023-10-13T15:47:59;13.93;;;5.43;;
6185;SDS011;3126;52.738;8.316;2023-10-13T15:53:04;11.73;;;5.70;;
6185;SDS011;3126;52.738;8.316;2023-10-13T15:58:06;12.98;;;5.10;;
6185;SDS011;3126;52.738;8.316;2023-10-13T16:03:07;12.43;;;4.93;;
6185;SDS011;3126;52.738;8.316;2023-10-13T16:08:11;11.60;;;5.25;;
6185;SDS011;3126;52.738;8.316;2023-10-13T16:13:12;13.95;;;5.55;;
6185;SDS011;3126;52.738;8.316;2023-10-13T16:18:18;11.05;;;5.47;;
6185;SDS011;3126;52.738;8.316;2023-10-13T16:23:21;17.45;;;6.05;;
6185;SDS011;3126;52.738;8.316;2023-10-13T16:28:23;10.70;;;5.28;;
6185;SDS011;3126;52.738;8.316;2023-10-13T16:33:24;11.00;;;4.80;;
6185;SDS011;3126;52.738;8.316;2023-10-13T16:38:28;15.32;;;5.68;;
6185;SDS011;3126;52.738;8.316;2023-10-13T16:43:29;13.98;;;5.30;;
6185;SDS011;3126;52.738;8.316;2023-10-13T16:48:33;15.52;;;5.63;;
6185;SDS011;3126;52.738;8.316;2023-10-13T16:53:34;11.35;;;5.38;;
6185;SDS011;3126;52.738;8.316;2023-10-13T16:58:36;10.48;;;4.80;;
6185;SDS011;3126;52.738;8.316;2023-10-13T17:03:37;16.33;;;5.13;;
6185;SDS011;3126;52.738;8.316;2023-10-13T17:08:39;14.07;;;5.28;;
6185;SDS011;3126;52.738;8.316;2023-10-13T17:13:41;14.52;;;5.18;;
6185;SDS011;3126;52.738;8.316;2023-10-13T17:18:43;9.60;;;5.30;;
6185;SDS011;3126;52.738;8.316;2023-10-13T17:23:47;9.75;;;5.10;;
6185;SDS011;3126;52.738;8.316;2023-10-13T17:28:51;14.63;;;6.15;;
6185;SDS011;3126;52.738;8.316;2023-10-13T17:33:55;9.70;;;5.75;;
6185;SDS011;3126;52.738;8.316;2023-10-13T17:38:58;9.93;;;5.57;;
6185;SDS011;3126;52.738;8.316;2023-10-13T17:44:00;10.18;;;5.80;;
6185;SDS011;3126;52.738;8.316;2023-10-13T17:54:03;13.35;;;6.60;;
6185;SDS011;3126;52.738;8.316;2023-10-13T17:59:05;16.33;;;6.32;;
6185;SDS011;3126;52.738;8.316;2023-10-13T18:04:06;11.25;;;5.15;;
6185;SDS011;3126;52.738;8.316;2023-10-13T18:09:09;15.13;;;5.72;;
6185;SDS011;3126;52.738;8.316;2023-10-13T18:14:13;11.00;;;5.50;;
6185;SDS011;3126;52.738;8.316;2023-10-13T18:19:15;13.10;;;6.05;;
6185;SDS011;3126;52.738;8.316;2023-10-13T18:24:20;13.32;;;5.47;;
6185;SDS011;3126;52.738;8.316;2023-10-13T18:29:22;19.85;;;5.70;;
6185;SDS011;3126;52.738;8.316;2023-10-13T18:34:23;15.77;;;5.07;;
6185;SDS011;3126;52.738;8.316;2023-10-13T18:39:24;10.70;;;5.25;;
6185;SDS011;3126;52.738;8.316;2023-10-13T18:44:34;11.05;;;6.47;;
6185;SDS011;3126;52.738;8.316;2023-10-13T18:49:34;12.32;;;5.93;;
6185;SDS011;3126;52.738;8.316;2023-10-13T18:54:38;10.02;;;5.68;;
6185;SDS011;3126;52.738;8.316;2023-10-13T18:59:40;15.60;;;5.95;;
6185;SDS011;3126;52.738;8.316;2023-10-13T19:04:43;15.20;;;6.70;;
6185;SDS011;3126;52.738;8.316;2023-10-13T19:09:45;12.82;;;7.30;;
6185;SDS011;3126;52.738;8.316;2023-10-13T19:14:46;15.98;;;7.40;;
6185;SDS011;3126;52.738;8.316;2023-10-13T19:19:47;13.45;;;6.53;;
6185;SDS011;3126;52.738;8.316;2023-10-13T19:24:48;16.02;;;6.57;;
6185;SDS011;3126;52.738;8.316;2023-10-13T19:29:49;16.30;;;7.72;;
6185;SDS011;3126;52.738;8.316;2023-10-13T19:34:51;12.50;;;6.47;;
6185;SDS011;3126;52.738;8.316;2023-10-13T19:39:52;19.30;;;7.40;;
6185;SDS011;3126;52.738;8.316;2023-10-13T19:44:53;12.38;;;7.28;;
6185;SDS011;3126;52.738;8.316;2023-10-13T19:49:54;15.40;;;7.25;;
6185;SDS011;3126;52.738;8.316;2023-10-13T19:59:59;10.60;;;6.05;;
6185;SDS011;3126;52.738;8.316;2023-10-13T20:05:00;12.35;;;6.10;;
6185;SDS011;3126;52.738;8.316;2023-10-13T20:10:04;10.48;;;5.85;;
6185;SDS011;3126;52.738;8.316;2023-10-13T20:15:09;8.93;;;5.47;;
6185;SDS011;3126;52.738;8.316;2023-10-13T20:20:10;9.63;;;4.13;;
6185;SDS011;3126;52.738;8.316;2023-10-13T20:25:12;6.40;;;2.80;;
6185;SDS011;3126;52.738;8.316;2023-10-13T20:30:16;7.90;;;3.85;;
6185;SDS011;3126;52.738;8.316;2023-10-13T20:35:21;6.20;;;4.47;;
6185;SDS011;3126;52.738;8.316;2023-10-13T20:40:22;9.27;;;5.45;;
6185;SDS011;3126;52.738;8.316;2023-10-13T20:45:23;10.88;;;6.20;;
6185;SDS011;3126;52.738;8.316;2023-10-13T20:50:24;12.95;;;7.30;;
6185;SDS011;3126;52.738;8.316;2023-10-13T20:55:25;16.13;;;7.85;;
6185;SDS011;3126;52.738;8.316;2023-10-13T21:00:26;17.33;;;8.93;;
6185;SDS011;3126;52.738;8.316;2023-10-13T21:05:30;11.93;;;8.77;;
6185;SDS011;3126;52.738;8.316;2023-10-13T21:10:32;14.27;;;8.98;;
6185;SDS011;3126;52.738;8.316;2023-10-13T21:15:36;15.00;;;8.90;;
6185;SDS011;3126;52.738;8.316;2023-10-13T21:20:37;14.90;;;7.57;;
6185;SDS011;3126;52.738;8.316;2023-10-13T21:25:40;14.98;;;8.32;;
6185;SDS011;3126;52.738;8.316;2023-10-13T21:30:41;15.85;;;8.27;;
6185;SDS011;3126;52.738;8.316;2023-10-13T21:35:43;17.48;;;9.57;;
6185;SDS011;3126;52.738;8.316;2023-10-13T21:40:44;13.07;;;9.32;;
6185;SDS011;3126;52.738;8.316;2023-10-13T21:45:45;16.85;;;9.45;;
6185;SDS011;3126;52.738;8.316;2023-10-13T21:50:46;15.25;;;9.27;;
6185;SDS011;3126;52.738;8.316;2023-10-13T21:55:47;15.73;;;10.40;;
6185;SDS011;3126;52.738;8.316;2023-10-13T22:00:49;17.77;;;9.52;;
6185;SDS011;3126;52.738;8.316;2023-10-13T22:05:55;16.50;;;9.88;;
6185;SDS011;3126;52.738;8.316;2023-10-13T22:10:57;16.73;;;9.65;;
6185;SDS011;3126;52.738;8.316;2023-10-13T22:16:00;13.80;;;9.82;;
6185;SDS011;3126;52.738;8.316;2023-10-13T22:21:10;18.08;;;10.63;;
6185;SDS011;3126;52.738;8.316;2023-10-13T22:26:12;15.68;;;9.27;;
6185;SDS011;3126;52.738;8.316;2023-10-13T22:31:18;15.88;;;10.00;;
6185;SDS011;3126;52.738;8.316;2023-10-13T22:36:24;16.67;;;10.20;;
6185;SDS011;3126;52.738;8.316;2023-10-13T22:41:26;18.00;;;9.75;;
6185;SDS011;3126;52.738;8.316;2023-10-13T22:46:27;16.77;;;10.18;;
6185;SDS011;3126;52.738;8.316;2023-10-13T22:51:28;17.00;;;10.43;;
6185;SDS011;3126;52.738;8.316;2023-10-13T22:56:31;16.73;;;10.23;;
6185;SDS011;3126;52.738;8.316;2023-10-13T23:01:32;16.05;;;9.75;;
6185;SDS011;3126;52.738;8.316;2023-10-13T23:06:42;16.77;;;8.57;;
6185;SDS011;3126;52.738;8.316;2023-10-13T23:11:46;13.38;;;7.20;;
6185;SDS011;3126;52.738;8.316;2023-10-13T23:16:48;13.95;;;6.15;;
6185;SDS011;3126;52.738;8.316;2023-10-13T23:21:50;10.77;;;5.72;;
6185;SDS011;3126;52.738;8.316;2023-10-13T23:26:51;10.65;;;5.28;;
6185;SDS011;3126;52.738;8.316;2023-10-13T23:31:52;11.05;;;5.68;;
6185;SDS011;3126;52.738;8.316;2023-10-13T23:36:53;9.55;;;4.53;;
6185;SDS011;3126;52.738;8.316;2023-10-13T23:41:54;10.18;;;4.18;;
6185;SDS011;3126;52.738;8.316;2023-10-13T23:46:56;9.00;;;4.30;;
6185;SDS011;3126;52.738;8.316;2023-10-13T23:51:57;13.23;;;4.10;;
6185;SDS011;3126;52.738;8.316;2023-10-13T23:57:01;5.57;;;2.30;;
